Time;durP1;ratioP1;P1;durP2;ratioP2;P2;SDS_P1;SDS_P2;PMS_P1;PMS_P2;Temp;Humidity;BMP_temperature;BMP_pressure;BME280_temperature;BME280_humidity;BME280_pressure;Samples;Min_cycle;Max_cycle;Signal;HPM_P1;HPM_P2
2022/10/17 00:02:03;;;;;;;12.40;10.50;;;13.50;99.90;;;;;;5096281;28;20493;-73
2022/10/17 00:04:30;;;;;;;12.17;10.87;;;13.50;99.90;;;;;;5096030;28;20482;-73
2022/10/17 00:06:57;;;;;;;12.47;11.10;;;13.50;99.90;;;;;;5096034;28;20491;-73
2022/10/17 00:09:23;;;;;;;16.60;12.80;;;13.50;99.90;;;;;;5096004;28;20453;-73
2022/10/17 00:11:50;;;;;;;11.57;10.37;;;13.50;99.90;;;;;;5095934;28;20440;-73
2022/10/17 00:14:18;;;;;;;14.70;10.93;;;13.50;99.90;;;;;;5095934;28;20451;-74
2022/10/17 00:16:44;;;;;;;12.57;11.10;;;13.50;99.90;;;;;;5095774;28;20451;-73
2022/10/17 00:19:11;;;;;;;13.33;11.17;;;13.70;99.90;;;;;;5095907;28;20463;-73
2022/10/17 00:21:38;;;;;;;14.10;11.70;;;13.50;99.90;;;;;;5095888;28;20451;-73
2022/10/17 00:24:05;;;;;;;14.13;11.13;;;13.50;99.90;;;;;;5095447;28;20501;-73
2022/10/17 00:26:32;;;;;;;17.30;11.23;;;13.50;99.90;;;;;;5095940;28;20476;-73
2022/10/17 00:28:59;;;;;;;11.37;10.27;;;13.60;99.90;;;;;;5095930;28;20513;-73
2022/10/17 00:31:27;;;;;;;19.47;10.40;;;13.60;99.90;;;;;;5096060;28;20538;-73
2022/10/17 00:33:54;;;;;;;13.17;9.60;;;13.50;99.90;;;;;;5095938;28;20440;-73
2022/10/17 00:36:23;;;;;;;10.00;9.00;;;13.50;99.90;;;;;;5095828;28;20493;-73
2022/10/17 00:38:51;;;;;;;14.87;9.23;;;13.40;99.90;;;;;;5095665;28;20873;-73
2022/10/17 00:41:23;;;;;;;11.60;10.40;;;13.20;99.90;;;;;;5095638;28;20423;-73
2022/10/17 00:43:52;;;;;;;12.00;10.03;;;13.40;99.90;;;;;;5095654;28;20436;-73
2022/10/17 00:46:20;;;;;;;10.00;9.10;;;13.40;99.90;;;;;;5095586;28;20509;-73
2022/10/17 00:48:50;;;;;;;11.50;9.23;;;13.50;99.90;;;;;;5095333;28;20525;-73
2022/10/17 00:51:19;;;;;;;13.70;10.50;;;13.40;99.90;;;;;;5098275;28;20498;-74
2022/10/17 00:53:46;;;;;;;10.30;9.30;;;13.50;99.90;;;;;;5100997;28;20501;-74
2022/10/17 00:56:13;;;;;;;13.33;9.60;;;13.40;99.90;;;;;;5100887;28;20444;-73
2022/10/17 00:58:40;;;;;;;9.50;8.60;;;13.40;99.90;;;;;;5096360;28;21047;-73
2022/10/17 01:01:07;;;;;;;9.87;8.73;;;13.40;99.90;;;;;;5095236;28;20443;-75
2022/10/17 01:03:33;;;;;;;9.97;9.07;;;13.40;99.90;;;;;;5094869;28;20984;-73
2022/10/17 01:06:01;;;;;;;10.30;8.70;;;13.50;99.90;;;;;;5094812;28;20484;-73
2022/10/17 01:08:28;;;;;;;10.13;9.00;;;13.50;99.90;;;;;;5094878;28;20521;-73
2022/10/17 01:11:05;;;;;;;14.27;8.83;;;13.50;99.90;;;;;;5094548;28;20455;-74
2022/10/17 01:13:38;;;;;;;8.67;7.90;;;13.50;99.90;;;;;;5095052;28;20439;-73
2022/10/17 01:16:11;;;;;;;9.83;8.77;;;13.50;99.90;;;;;;5094879;28;20432;-75
2022/10/17 01:18:48;;;;;;;9.50;8.60;;;13.60;99.90;;;;;;5094807;28;20468;-74
2022/10/17 01:21:27;;;;;;;11.70;9.93;;;13.50;99.90;;;;;;5094767;28;20424;-73
2022/10/17 01:24:27;;;;;;;9.80;8.73;;;13.60;99.90;;;;;;5094769;28;20845;-75
2022/10/17 01:27:27;;;;;;;10.73;8.53;;;13.50;99.90;;;;;;5094606;28;20471;-74
2022/10/17 01:30:07;;;;;;;8.40;7.60;;;13.50;99.90;;;;;;5094620;28;20517;-74
2022/10/17 01:32:40;;;;;;;9.17;8.20;;;13.30;99.90;;;;;;5094508;28;20467;-75
2022/10/17 01:35:13;;;;;;;10.37;7.17;;;13.40;99.90;;;;;;5094489;28;20432;-75
2022/10/17 01:37:46;;;;;;;8.67;7.87;;;13.10;99.90;;;;;;5094431;28;20469;-75
2022/10/17 01:40:16;;;;;;;7.47;6.77;;;13.40;99.90;;;;;;5094300;28;20517;-74
2022/10/17 01:42:51;;;;;;;8.77;7.83;;;13.50;99.90;;;;;;5094323;28;20442;-74
2022/10/17 01:45:25;;;;;;;10.63;7.50;;;13.30;99.90;;;;;;5093885;28;20463;-75
2022/10/17 01:47:56;;;;;;;8.70;7.73;;;13.60;99.90;;;;;;5094046;28;20931;-75
2022/10/17 01:50:28;;;;;;;10.30;8.20;;;13.20;99.90;;;;;;5093767;28;20454;-75
2022/10/17 01:52:59;;;;;;;9.27;8.43;;;12.90;99.90;;;;;;5094157;28;20424;-74
2022/10/17 01:55:31;;;;;;;9.07;7.40;;;13.30;99.90;;;;;;5094096;28;20420;-74
2022/10/17 01:58:03;;;;;;;9.20;7.73;;;13.10;99.90;;;;;;5094244;28;20481;-74
2022/10/17 02:00:30;;;;;;;9.33;7.10;;;13.10;99.90;;;;;;5094073;28;20804;-74
2022/10/17 02:03:02;;;;;;;7.70;7.10;;;13.10;99.90;;;;;;5093994;28;20497;-75
2022/10/17 02:05:32;;;;;;;8.30;7.60;;;13.10;99.90;;;;;;5094996;28;20446;-76
2022/10/17 02:07:59;;;;;;;8.20;6.90;;;13.10;99.90;;;;;;5093932;28;20443;-75
2022/10/17 02:10:33;;;;;;;9.80;8.03;;;12.80;99.90;;;;;;5093716;28;20495;-75
2022/10/17 02:13:04;;;;;;;9.07;8.17;;;13.00;99.90;;;;;;5093802;28;20436;-75
2022/10/17 02:15:53;;;;;;;8.87;7.97;;;12.90;99.90;;;;;;5093916;28;20465;-74
2022/10/17 02:18:39;;;;;;;8.27;6.63;;;12.50;99.90;;;;;;5093798;28;20946;-75
2022/10/17 02:21:13;;;;;;;10.47;7.47;;;12.90;99.90;;;;;;5093701;28;20811;-74
2022/10/17 02:23:51;;;;;;;13.00;8.10;;;12.90;99.90;;;;;;5093127;28;20481;-75
2022/10/17 02:26:24;;;;;;;8.93;8.13;;;12.90;99.90;;;;;;5093483;28;20544;-74
2022/10/17 02:29:02;;;;;;;8.00;7.27;;;12.80;99.90;;;;;;5093227;28;21002;-75
2022/10/17 02:31:33;;;;;;;7.70;6.90;;;12.90;99.90;;;;;;5093648;28;20475;-76
2022/10/17 02:34:04;;;;;;;9.13;8.20;;;12.70;99.90;;;;;;5093670;28;20412;-75
2022/10/17 02:36:34;;;;;;;9.87;7.67;;;12.90;99.90;;;;;;5093666;28;20413;-75
2022/10/17 02:39:02;;;;;;;7.90;7.10;;;12.80;99.90;;;;;;5093459;28;20471;-75
2022/10/17 02:41:31;;;;;;;8.53;7.63;;;13.00;99.90;;;;;;5093397;28;20440;-75
2022/10/17 02:43:58;;;;;;;8.40;7.50;;;13.00;99.90;;;;;;5093011;28;20451;-75
2022/10/17 02:46:27;;;;;;;8.63;7.73;;;13.00;99.90;;;;;;5093277;28;20528;-75
2022/10/17 02:48:59;;;;;;;10.37;7.57;;;13.00;99.90;;;;;;5092899;28;20479;-74
2022/10/17 02:51:32;;;;;;;8.43;6.80;;;13.00;99.90;;;;;;5094290;28;20432;-75
2022/10/17 02:54:06;;;;;;;8.77;7.70;;;13.10;99.90;;;;;;5093746;28;20501;-76
2022/10/17 02:56:39;;;;;;;7.33;6.60;;;13.20;99.90;;;;;;5093450;28;20430;-74
2022/10/17 02:59:09;;;;;;;7.77;7.10;;;13.20;99.90;;;;;;5093319;28;20479;-74
2022/10/17 03:01:36;;;;;;;9.70;8.23;;;13.10;99.90;;;;;;5093047;28;20451;-74
2022/10/17 03:04:08;;;;;;;8.83;6.60;;;13.10;99.90;;;;;;5093269;28;20447;-74
2022/10/17 03:06:36;;;;;;;7.63;6.90;;;13.10;99.90;;;;;;5093225;28;20468;-74
2022/10/17 03:09:03;;;;;;;9.37;7.70;;;13.10;99.90;;;;;;5093024;28;20460;-74
2022/10/17 03:11:30;;;;;;;8.27;7.40;;;13.10;99.90;;;;;;5093146;28;20444;-74
2022/10/17 03:13:56;;;;;;;9.43;8.47;;;13.20;99.90;;;;;;5092924;28;20999;-75
2022/10/17 03:16:23;;;;;;;8.40;7.60;;;13.10;99.90;;;;;;5093199;28;20930;-74
2022/10/17 03:18:49;;;;;;;8.43;7.53;;;13.10;99.90;;;;;;5093067;28;20806;-74
2022/10/17 03:21:16;;;;;;;8.73;7.90;;;13.10;99.90;;;;;;5093208;28;20876;-75
2022/10/17 03:23:44;;;;;;;7.90;7.20;;;13.20;99.90;;;;;;5093127;28;20497;-74
2022/10/17 03:26:11;;;;;;;9.67;8.77;;;13.20;99.90;;;;;;5092769;28;20496;-74
2022/10/17 03:28:38;;;;;;;8.90;7.77;;;13.30;99.90;;;;;;5093117;28;20972;-74
2022/10/17 03:31:09;;;;;;;10.20;8.83;;;13.30;99.90;;;;;;5093053;28;20426;-74
2022/10/17 03:33:36;;;;;;;15.23;8.27;;;13.30;99.90;;;;;;5093022;28;20474;-74
2022/10/17 03:36:07;;;;;;;8.50;7.77;;;13.30;99.90;;;;;;5096988;28;20505;-74
2022/10/17 03:38:34;;;;;;;10.13;9.10;;;13.40;99.90;;;;;;5096731;28;20895;-75
2022/10/17 03:41:02;;;;;;;9.77;8.87;;;13.40;99.90;;;;;;5096879;28;20414;-75
2022/10/17 03:43:28;;;;;;;9.60;8.53;;;13.00;99.90;;;;;;5096359;28;20898;-74
2022/10/17 03:45:57;;;;;;;9.03;8.00;;;13.40;99.90;;;;;;5096639;28;20511;-74
2022/10/17 03:48:24;;;;;;;9.80;8.90;;;13.40;99.90;;;;;;5096442;28;20442;-75
2022/10/17 03:50:50;;;;;;;8.63;7.77;;;13.40;99.90;;;;;;5096642;28;20811;-74
2022/10/17 03:53:17;;;;;;;10.70;9.70;;;13.40;99.90;;;;;;5096576;28;20545;-75
2022/10/17 03:55:44;;;;;;;12.50;9.50;;;13.40;99.90;;;;;;5096881;28;20443;-75
2022/10/17 03:58:12;;;;;;;9.70;8.80;;;13.50;99.90;;;;;;5096591;28;20823;-74
2022/10/17 04:00:39;;;;;;;9.67;8.70;;;13.30;99.90;;;;;;5096357;28;20917;-75
2022/10/17 04:03:05;;;;;;;9.60;8.60;;;13.40;99.90;;;;;;5096263;28;20448;-75
2022/10/17 04:05:32;;;;;;;9.30;8.30;;;13.50;99.90;;;;;;5096202;28;20784;-75
2022/10/17 04:07:59;;;;;;;14.20;12.10;;;13.40;99.90;;;;;;5095770;28;20422;-74
2022/10/17 04:10:25;;;;;;;8.80;8.00;;;13.40;99.90;;;;;;5096000;28;20467;-75
2022/10/17 04:12:52;;;;;;;9.50;8.70;;;13.40;99.90;;;;;;5096380;28;20446;-74
2022/10/17 04:15:20;;;;;;;10.10;9.20;;;13.40;99.90;;;;;;5095977;28;20446;-74
2022/10/17 04:17:46;;;;;;;8.67;7.97;;;13.40;99.90;;;;;;5095906;28;20423;-74
2022/10/17 04:20:13;;;;;;;9.40;8.60;;;13.40;99.90;;;;;;5095754;28;20442;-75
2022/10/17 04:22:40;;;;;;;10.17;8.30;;;13.40;99.90;;;;;;5095944;28;20575;-75
2022/10/17 04:25:07;;;;;;;9.70;8.47;;;13.40;99.90;;;;;;5095844;28;20451;-75
2022/10/17 04:27:34;;;;;;;9.13;8.27;;;13.40;99.90;;;;;;5095854;28;20479;-75
2022/10/17 04:30:01;;;;;;;9.00;8.10;;;13.40;99.90;;;;;;5095743;28;20438;-75
2022/10/17 04:32:29;;;;;;;9.40;8.53;;;13.60;99.90;;;;;;5095881;28;20440;-75
2022/10/17 04:34:55;;;;;;;10.27;8.77;;;13.50;99.90;;;;;;5095820;28;20485;-75
2022/10/17 04:37:22;;;;;;;9.30;8.40;;;13.40;99.90;;;;;;5095703;28;20443;-75
2022/10/17 04:39:48;;;;;;;14.90;8.47;;;13.30;99.90;;;;;;5095456;28;20472;-74
2022/10/17 04:42:15;;;;;;;8.80;8.00;;;13.40;99.90;;;;;;5095595;28;20493;-76
2022/10/17 04:44:42;;;;;;;9.30;8.43;;;13.40;99.90;;;;;;5094787;28;20440;-75
2022/10/17 04:47:09;;;;;;;9.97;8.93;;;13.40;99.90;;;;;;5095294;28;20454;-75
2022/10/17 04:49:37;;;;;;;10.17;9.07;;;13.40;99.90;;;;;;5095016;28;20453;-75
2022/10/17 04:52:04;;;;;;;10.87;8.97;;;13.50;99.90;;;;;;5095677;28;20426;-75
2022/10/17 04:54:30;;;;;;;9.23;8.43;;;13.40;99.90;;;;;;5094992;28;20444;-76
2022/10/17 04:56:57;;;;;;;12.03;10.93;;;13.30;99.90;;;;;;5095409;28;20440;-76
2022/10/17 04:59:23;;;;;;;11.93;10.83;;;13.30;99.90;;;;;;5095324;28;20464;-75
2022/10/17 05:01:50;;;;;;;10.63;9.50;;;13.40;99.90;;;;;;5095207;28;20490;-75
2022/10/17 05:04:17;;;;;;;10.97;9.87;;;13.30;99.90;;;;;;5095913;28;20447;-75
2022/10/17 05:06:45;;;;;;;21.33;13.63;;;13.30;99.90;;;;;;5094869;28;20483;-74
2022/10/17 05:09:11;;;;;;;10.07;9.17;;;13.30;99.90;;;;;;5094939;28;20474;-75
2022/10/17 05:11:38;;;;;;;10.27;8.63;;;13.30;99.90;;;;;;5095530;28;20999;-75
2022/10/17 05:14:05;;;;;;;10.80;9.70;;;13.50;99.90;;;;;;5095081;28;20418;-74
2022/10/17 05:16:32;;;;;;;13.87;10.87;;;13.30;99.90;;;;;;5094978;28;20444;-75
2022/10/17 05:18:59;;;;;;;10.23;9.00;;;13.30;99.90;;;;;;5094746;28;20450;-76
2022/10/17 05:21:27;;;;;;;10.97;9.97;;;13.30;99.90;;;;;;5094706;28;20521;-76
2022/10/17 05:23:56;;;;;;;10.00;8.50;;;13.40;99.90;;;;;;5094810;28;20790;-76
2022/10/17 05:26:23;;;;;;;10.90;9.80;;;13.30;99.90;;;;;;5095361;28;20924;-76
2022/10/17 05:28:51;;;;;;;12.23;10.97;;;13.40;99.90;;;;;;5094764;28;21005;-75
2022/10/17 05:31:18;;;;;;;11.00;8.80;;;13.40;99.90;;;;;;5094835;28;20824;-75
2022/10/17 05:33:44;;;;;;;11.00;9.90;;;13.40;99.90;;;;;;5094445;28;20842;-75
2022/10/17 05:36:11;;;;;;;13.07;11.80;;;13.40;99.90;;;;;;5094549;28;20418;-76
2022/10/17 05:38:38;;;;;;;11.63;10.63;;;13.30;99.90;;;;;;5094605;28;20521;-76
2022/10/17 05:41:06;;;;;;;11.93;10.73;;;13.20;99.90;;;;;;5094462;28;20844;-75
2022/10/17 05:43:34;;;;;;;14.60;11.60;;;13.60;99.90;;;;;;5094754;28;20459;-75
2022/10/17 05:46:03;;;;;;;11.73;10.40;;;13.30;99.90;;;;;;5094791;28;20482;-76
2022/10/17 05:48:30;;;;;;;17.53;11.50;;;13.30;99.90;;;;;;5093913;28;20480;-75
2022/10/17 05:51:00;;;;;;;15.20;12.47;;;13.30;99.90;;;;;;5094100;28;20440;-75
2022/10/17 05:53:30;;;;;;;11.77;10.60;;;13.10;99.90;;;;;;5093692;28;20929;-76
2022/10/17 05:55:58;;;;;;;12.77;11.57;;;13.30;99.90;;;;;;5093465;28;20943;-75
2022/10/17 05:58:26;;;;;;;11.23;10.07;;;13.50;99.90;;;;;;5093563;28;20884;-76
2022/10/17 06:00:57;;;;;;;11.83;10.60;;;13.30;99.90;;;;;;5094006;28;20837;-76
2022/10/17 06:03:24;;;;;;;9.97;9.07;;;13.20;99.90;;;;;;5094026;28;20406;-75
2022/10/17 06:05:51;;;;;;;12.63;11.00;;;13.20;99.90;;;;;;5093927;28;20425;-76
2022/10/17 06:08:18;;;;;;;12.23;11.03;;;14.20;99.90;;;;;;5093470;28;20578;-75
2022/10/17 06:10:47;;;;;;;16.00;12.50;;;13.60;99.90;;;;;;5093701;28;20800;-75
2022/10/17 06:13:14;;;;;;;15.33;12.40;;;13.20;99.90;;;;;;5093768;28;20863;-75
2022/10/17 06:15:42;;;;;;;12.97;11.77;;;13.70;99.90;;;;;;5093627;28;20423;-76
2022/10/17 06:18:08;;;;;;;14.53;13.13;;;13.50;99.90;;;;;;5093492;28;20797;-76
2022/10/17 06:20:35;;;;;;;14.10;12.80;;;13.40;99.90;;;;;;5093302;28;20942;-75
2022/10/17 06:23:03;;;;;;;14.90;12.07;;;13.40;99.90;;;;;;5093638;28;20475;-76
2022/10/17 06:25:31;;;;;;;11.87;10.63;;;13.50;99.90;;;;;;5093521;28;20480;-76
2022/10/17 06:27:58;;;;;;;15.03;10.57;;;13.50;99.90;;;;;;5093732;28;20537;-76
2022/10/17 06:30:24;;;;;;;12.40;11.10;;;13.60;99.90;;;;;;5093894;28;20463;-76
2022/10/17 06:32:53;;;;;;;12.00;10.80;;;13.70;99.90;;;;;;5093403;28;20425;-76
2022/10/17 06:35:20;;;;;;;10.80;9.77;;;13.70;99.90;;;;;;5093671;28;20521;-76
2022/10/17 06:37:47;;;;;;;11.10;9.90;;;13.70;99.90;;;;;;5094116;28;20422;-76
2022/10/17 06:40:16;;;;;;;12.33;10.80;;;13.70;99.90;;;;;;5093692;28;20442;-76
2022/10/17 06:42:43;;;;;;;11.53;10.50;;;13.80;99.90;;;;;;5093507;28;20508;-76
2022/10/17 06:45:10;;;;;;;10.43;9.43;;;13.80;99.90;;;;;;5093635;28;20535;-76
2022/10/17 06:47:37;;;;;;;13.13;9.27;;;13.70;99.90;;;;;;5093397;28;20475;-76
2022/10/17 06:50:06;;;;;;;11.80;9.90;;;13.90;99.90;;;;;;5093239;28;20860;-76
2022/10/17 06:52:33;;;;;;;12.70;9.30;;;13.90;99.90;;;;;;5093299;28;20796;-75
2022/10/17 06:54:59;;;;;;;8.80;7.90;;;14.80;99.90;;;;;;5093187;28;20455;-76
2022/10/17 06:57:27;;;;;;;10.00;8.83;;;14.00;99.90;;;;;;5093127;28;20440;-76
2022/10/17 06:59:54;;;;;;;10.53;8.77;;;14.10;99.90;;;;;;5092683;28;20476;-76
2022/10/17 07:02:22;;;;;;;9.47;8.30;;;14.10;99.90;;;;;;5092994;28;20451;-75
2022/10/17 07:04:49;;;;;;;9.83;8.17;;;14.20;99.90;;;;;;5092975;28;20430;-75
2022/10/17 07:07:17;;;;;;;9.03;8.23;;;14.30;99.90;;;;;;5093034;28;20483;-75
2022/10/17 07:09:43;;;;;;;7.70;7.00;;;14.30;99.90;;;;;;5096795;28;20468;-75
2022/10/17 07:12:11;;;;;;;9.33;7.43;;;14.30;99.90;;;;;;5096899;28;20945;-75
2022/10/17 07:14:38;;;;;;;13.17;8.10;;;14.40;99.90;;;;;;5097248;28;20482;-75
2022/10/17 07:17:04;;;;;;;9.20;8.40;;;14.50;99.90;;;;;;5097117;28;20858;-75
2022/10/17 07:19:31;;;;;;;9.20;8.33;;;14.50;99.90;;;;;;5096889;28;21046;-75
2022/10/17 07:21:58;;;;;;;9.70;8.80;;;14.50;99.90;;;;;;5097056;28;20447;-75
2022/10/17 07:24:26;;;;;;;9.00;7.50;;;15.00;99.90;;;;;;5096902;28;20448;-75
2022/10/17 07:26:52;;;;;;;8.50;7.80;;;14.60;99.90;;;;;;5096814;28;20476;-76
2022/10/17 07:29:19;;;;;;;9.03;7.27;;;14.70;99.90;;;;;;5096883;28;20513;-75
2022/10/17 07:31:47;;;;;;;8.37;7.63;;;14.70;99.90;;;;;;5096815;28;20804;-75
2022/10/17 07:34:14;;;;;;;10.70;7.60;;;14.80;99.90;;;;;;5097533;28;20447;-75
2022/10/17 07:36:41;;;;;;;8.47;7.57;;;14.70;99.90;;;;;;5096690;28;20523;-75
2022/10/17 07:39:07;;;;;;;9.27;7.23;;;14.80;99.90;;;;;;5096639;28;20467;-75
2022/10/17 07:41:35;;;;;;;8.47;7.67;;;14.80;99.90;;;;;;5096905;28;20809;-75
2022/10/17 07:44:02;;;;;;;8.13;7.33;;;14.90;99.90;;;;;;5096627;28;20418;-75
2022/10/17 07:46:29;;;;;;;10.47;8.20;;;15.00;99.90;;;;;;5096594;28;20443;-77
2022/10/17 07:48:55;;;;;;;7.93;7.17;;;15.10;99.90;;;;;;5096550;28;20483;-76
2022/10/17 07:51:22;;;;;;;9.23;8.07;;;15.10;99.90;;;;;;5097269;28;20434;-76
2022/10/17 07:53:49;;;;;;;10.60;7.70;;;15.10;99.90;;;;;;5096468;28;20440;-76
2022/10/17 07:56:16;;;;;;;7.97;6.73;;;15.20;99.90;;;;;;5096369;28;20814;-76
2022/10/17 07:58:44;;;;;;;7.93;7.13;;;15.40;99.90;;;;;;5095858;28;20467;-76
2022/10/17 08:01:13;;;;;;;10.53;7.40;;;15.20;99.90;;;;;;5096208;28;20860;-77
2022/10/17 08:03:40;;;;;;;9.03;7.10;;;15.40;99.90;;;;;;5096022;28;20479;-77
2022/10/17 08:06:07;;;;;;;7.63;7.00;;;;;;;;;;5096229;28;20451;-76
2022/10/17 08:08:34;;;;;;;7.63;6.83;;;15.50;99.90;;;;;;5096371;28;20506;-76
2022/10/17 08:11:03;;;;;;;6.77;6.13;;;15.50;99.90;;;;;;5096954;28;20448;-77
2022/10/17 08:13:30;;;;;;;7.07;6.47;;;15.60;99.90;;;;;;5096168;28;20448;-76
2022/10/17 08:16:00;;;;;;;7.87;6.70;;;15.70;99.90;;;;;;5096177;28;20415;-76
2022/10/17 08:18:27;;;;;;;10.53;6.37;;;;;;;;;;5096027;28;21047;-76
2022/10/17 08:20:54;;;;;;;7.90;6.03;;;16.00;99.90;;;;;;5095078;28;20452;-76
2022/10/17 08:23:21;;;;;;;7.07;6.37;;;16.00;99.90;;;;;;5095968;28;20926;-76
2022/10/17 08:25:47;;;;;;;10.10;8.77;;;16.10;99.90;;;;;;5095697;28;20452;-76
2022/10/17 08:28:14;;;;;;;17.90;11.07;;;16.50;99.90;;;;;;5095294;28;20479;-76
2022/10/17 08:30:41;;;;;;;10.50;9.40;;;16.30;99.90;;;;;;5095901;28;20443;-76
2022/10/17 08:33:08;;;;;;;8.93;6.57;;;16.40;99.90;;;;;;5095733;28;20513;-76
2022/10/17 08:35:35;;;;;;;9.90;7.00;;;16.50;99.90;;;;;;5095817;28;20443;-76
2022/10/17 08:38:02;;;;;;;8.70;6.60;;;16.50;99.90;;;;;;5096274;28;20440;-76
2022/10/17 08:40:32;;;;;;;8.87;7.97;;;16.60;99.90;;;;;;5095941;28;20529;-76
2022/10/17 08:43:38;;;;;;;9.93;8.30;;;16.40;99.90;;;;;;5095575;28;20439;-76
2022/10/17 08:46:07;;;;;;;13.70;9.10;;;16.80;99.90;;;;;;5088577;28;20450;-75
2022/10/17 08:48:40;;;;;;;10.43;9.30;;;17.00;99.90;;;;;;5094908;28;20899;-75
2022/10/17 08:51:13;;;;;;;12.03;8.70;;;16.60;99.90;;;;;;5095667;28;20792;-76
2022/10/17 08:53:44;;;;;;;13.07;10.03;;;16.90;99.90;;;;;;5094930;28;20918;-76
2022/10/17 08:56:18;;;;;;;14.80;12.10;;;17.10;99.90;;;;;;5095245;28;20956;-76
2022/10/17 08:58:44;;;;;;;17.30;15.50;;;17.10;99.90;;;;;;5094751;28;20513;-75
2022/10/17 09:01:25;;;;;;;19.70;12.33;;;17.20;99.90;;;;;;5094874;28;20444;-75
2022/10/17 09:04:06;;;;;;;5.63;5.00;;;17.30;99.90;;;;;;5094318;28;20489;-77
2022/10/17 09:06:37;;;;;;;8.00;6.10;;;17.40;99.90;;;;;;5094697;28;20428;-75
2022/10/17 09:09:19;;;;;;;7.80;7.10;;;18.10;99.90;;;;;;5094633;28;20511;-75
2022/10/17 09:11:56;;;;;;;6.37;5.73;;;17.70;99.90;;;;;;5095084;28;20435;-76
2022/10/17 09:14:58;;;;;;;5.60;5.20;;;17.70;99.90;;;;;;5094861;28;20431;-75
2022/10/17 09:17:35;;;;;;;8.97;8.17;;;17.70;99.90;;;;;;5094922;28;20489;-77
2022/10/17 09:20:10;;;;;;;5.87;5.37;;;17.90;99.90;;;;;;5094276;28;20471;-75
2022/10/17 09:22:42;;;;;;;7.80;6.87;;;17.90;99.90;;;;;;5094605;28;20436;-74
2022/10/17 09:25:14;;;;;;;11.50;5.60;;;18.00;99.90;;;;;;5095167;28;20801;-74
2022/10/17 09:27:44;;;;;;;11.23;9.40;;;18.10;99.90;;;;;;5094378;28;20526;-75
2022/10/17 09:30:33;;;;;;;9.40;8.40;;;18.40;99.90;;;;;;5094418;28;20899;-76
2022/10/17 09:33:00;;;;;;;8.60;7.30;;;18.20;99.90;;;;;;5094472;28;20438;-74
2022/10/17 09:35:29;;;;;;;6.30;5.63;;;18.20;99.90;;;;;;5094526;28;20448;-74
2022/10/17 09:37:56;;;;;;;4.70;4.30;;;19.40;99.90;;;;;;5094103;28;20461;-74
2022/10/17 09:40:26;;;;;;;9.20;5.10;;;18.50;99.90;;;;;;5094231;28;20471;-75
2022/10/17 09:42:54;;;;;;;13.60;10.30;;;18.50;99.90;;;;;;5093869;28;20461;-75
2022/10/17 09:45:25;;;;;;;8.50;5.97;;;18.60;99.90;;;;;;5093849;28;20946;-74
2022/10/17 09:48:00;;;;;;;6.50;5.90;;;18.60;99.90;;;;;;5094021;28;20559;-75
2022/10/17 09:50:31;;;;;;;6.53;5.53;;;18.70;99.90;;;;;;5093729;28;20483;-75
2022/10/17 09:53:02;;;;;;;6.00;4.77;;;18.70;99.90;;;;;;5094204;28;20909;-75
2022/10/17 09:55:38;;;;;;;5.83;5.20;;;18.70;99.90;;;;;;5093811;28;20432;-76
2022/10/17 09:58:07;;;;;;;5.93;4.83;;;19.10;99.90;;;;;;5094414;28;20845;-75
2022/10/17 10:00:36;;;;;;;5.70;5.20;;;18.80;99.90;;;;;;5094266;28;20481;-75
2022/10/17 10:03:15;;;;;;;8.40;5.50;;;18.90;99.90;;;;;;5094058;28;20543;-75
2022/10/17 10:05:59;;;;;;;6.13;5.00;;;19.00;99.90;;;;;;5093852;28;20428;-74
2022/10/17 10:08:28;;;;;;;5.40;4.90;;;19.20;99.90;;;;;;5093644;28;20515;-76
2022/10/17 10:10:59;;;;;;;4.50;4.03;;;19.20;99.90;;;;;;5093851;28;20823;-76
2022/10/17 10:13:26;;;;;;;8.33;3.67;;;19.30;99.90;;;;;;5093857;28;20799;-76
2022/10/17 10:15:53;;;;;;;4.90;4.50;;;20.20;99.90;;;;;;5093846;28;20451;-76
2022/10/17 10:18:32;;;;;;;5.70;5.20;;;20.10;99.90;;;;;;5094218;28;20455;-75
2022/10/17 10:21:09;;;;;;;7.27;5.40;;;19.70;99.90;;;;;;5093657;28;20485;-75
2022/10/17 10:23:39;;;;;;;4.20;3.53;;;19.80;99.90;;;;;;5093780;28;20824;-75
2022/10/17 10:26:20;;;;;;;8.33;4.50;;;19.90;99.90;;;;;;5093761;28;20444;-75
2022/10/17 10:28:53;;;;;;;4.77;4.33;;;20.00;99.90;;;;;;5092911;28;21074;-75
2022/10/17 10:31:27;;;;;;;6.50;5.13;;;20.20;99.90;;;;;;5093508;28;20432;-75
2022/10/17 10:33:54;;;;;;;9.70;6.63;;;20.20;99.90;;;;;;5093494;28;20430;-76
2022/10/17 10:36:23;;;;;;;8.10;5.03;;;20.30;99.90;;;;;;5093452;28;20851;-76
2022/10/17 10:38:54;;;;;;;10.37;4.00;;;20.20;99.90;;;;;;5093382;28;21011;-76
2022/10/17 10:41:21;;;;;;;9.47;4.63;;;20.30;99.90;;;;;;5093736;28;20432;-76
2022/10/17 10:43:49;;;;;;;4.47;4.07;;;20.30;99.90;;;;;;5093338;28;20518;-76
2022/10/17 10:46:18;;;;;;;6.20;3.90;;;20.30;99.90;;;;;;5093922;28;20863;-75
2022/10/17 10:48:54;;;;;;;7.43;4.27;;;20.40;99.90;;;;;;5093093;28;21044;-76
2022/10/17 10:51:28;;;;;;;8.40;3.93;;;20.40;99.90;;;;;;5092952;28;20439;-75
2022/10/17 10:54:01;;;;;;;5.90;3.47;;;20.40;99.90;;;;;;5092983;28;20454;-76
2022/10/17 10:56:33;;;;;;;5.33;4.57;;;20.50;99.90;;;;;;5094561;28;20428;-76
2022/10/17 10:59:12;;;;;;;4.80;4.00;;;20.70;99.90;;;;;;5093358;28;20521;-76
2022/10/17 11:01:45;;;;;;;4.83;4.40;;;20.70;99.90;;;;;;5093288;28;20518;-75
2022/10/17 11:04:24;;;;;;;6.70;4.60;;;20.80;99.90;;;;;;5093023;28;20424;-75
2022/10/17 11:06:57;;;;;;;6.47;3.70;;;20.80;99.90;;;;;;5094021;28;20809;-76
2022/10/17 11:09:34;;;;;;;4.37;4.00;;;20.80;95.60;;;;;;5093027;28;20533;-76
2022/10/17 11:12:06;;;;;;;4.77;4.30;;;20.80;39.40;;;;;;5093086;28;20432;-75
2022/10/17 11:14:40;;;;;;;5.53;4.07;;;21.10;1.00;;;;;;5093047;28;20424;-76
2022/10/17 11:17:16;;;;;;;4.67;3.67;;;20.90;1.00;;;;;;5092718;28;20914;-75
2022/10/17 11:19:48;;;;;;;4.43;3.70;;;21.10;1.00;;;;;;5092943;28;20455;-76
2022/10/17 11:22:21;;;;;;;4.40;4.00;;;21.10;99.90;;;;;;5093467;28;20519;-76
2022/10/17 11:24:55;;;;;;;6.67;4.67;;;21.30;99.90;;;;;;5093164;28;20428;-76
2022/10/17 11:27:23;;;;;;;7.47;4.67;;;21.20;1.00;;;;;;5093166;28;20840;-75
2022/10/17 11:29:50;;;;;;;5.20;3.10;;;21.90;1.00;;;;;;5094244;28;20483;-75
2022/10/17 11:32:27;;;;;;;3.63;3.33;;;21.50;1.00;;;;;;5093425;28;20443;-75
2022/10/17 11:35:00;;;;;;;4.87;3.60;;;21.50;1.00;;;;;;5093293;28;20853;-76
2022/10/17 11:37:34;;;;;;;3.47;3.20;;;21.50;1.00;;;;;;5093216;28;20428;-76
2022/10/17 11:40:04;;;;;;;3.37;3.17;;;21.50;99.90;;;;;;5092842;28;20460;-76
2022/10/17 11:42:36;;;;;;;3.77;3.47;;;21.60;1.00;;;;;;5092768;28;20440;-76
2022/10/17 11:45:09;;;;;;;5.83;3.90;;;21.50;1.00;;;;;;5092839;28;20428;-76
2022/10/17 11:47:43;;;;;;;3.70;3.40;;;21.60;1.00;;;;;;5098710;28;20449;-75
2022/10/17 11:50:21;;;;;;;9.90;4.13;;;21.60;1.00;;;;;;5095292;28;20494;-76
2022/10/17 11:52:54;;;;;;;3.10;2.90;;;21.60;1.00;;;;;;5092992;28;20428;-75
2022/10/17 11:55:23;;;;;;;6.77;3.57;;;21.60;99.90;;;;;;5093935;28;20424;-76
2022/10/17 11:58:01;;;;;;;4.37;4.07;;;21.70;99.90;;;;;;5096935;28;20456;-75
2022/10/17 12:00:40;;;;;;;4.27;3.73;;;21.70;99.90;;;;;;5096289;28;20468;-76
2022/10/17 12:03:19;;;;;;;5.03;4.43;;;21.80;1.00;;;;;;5096279;28;20477;-75
2022/10/17 12:05:52;;;;;;;4.10;3.70;;;21.80;99.90;;;;;;5096282;28;20436;-74
2022/10/17 12:08:33;;;;;;;4.10;3.80;;;22.20;1.00;;;;;;5096005;28;20467;-75
2022/10/17 12:11:05;;;;;;;5.17;4.77;;;21.90;1.00;;;;;;5096598;28;20435;-75
2022/10/17 12:13:51;;;;;;;5.10;4.40;;;21.90;99.90;;;;;;5096067;28;20432;-74
2022/10/17 12:16:49;;;;;;;6.60;4.93;;;21.90;99.90;;;;;;5095999;28;20432;-75
2022/10/17 12:19:27;;;;;;;11.50;5.47;;;21.80;99.90;;;;;;5096762;28;20462;-75
2022/10/17 12:22:00;;;;;;;6.50;4.33;;;21.80;99.90;;;;;;5096145;28;20420;-76
2022/10/17 12:24:41;;;;;;;7.10;5.13;;;21.60;99.90;;;;;;5095991;28;20428;-76
2022/10/17 12:27:37;;;;;;;7.37;5.03;;;21.90;15.60;;;;;;5095752;28;20424;-75
2022/10/17 12:30:14;;;;;;;4.53;4.13;;;21.80;99.90;;;;;;5095769;28;20490;-75
2022/10/17 12:32:58;;;;;;;5.17;3.97;;;21.80;99.90;;;;;;5096106;28;20424;-75
2022/10/17 12:35:26;;;;;;;4.57;3.93;;;21.80;98.40;;;;;;5095940;28;20432;-75
2022/10/17 12:38:18;;;;;;;3.80;3.37;;;21.90;1.00;;;;;;5095520;28;20448;-75
2022/10/17 12:40:54;;;;;;;4.77;4.27;;;21.90;1.00;;;;;;5093915;28;20539;-75
2022/10/17 12:43:56;;;;;;;6.87;4.83;;;21.90;1.00;;;;;;5096044;28;20778;-75
2022/10/17 12:46:56;;;;;;;6.53;3.50;;;21.90;1.00;;;;;;5095342;28;20428;-76
2022/10/17 12:49:39;;;;;;;9.77;8.07;;;22.00;1.00;;;;;;5094778;28;20483;-75
2022/10/17 12:52:16;;;;;;;8.73;7.10;;;22.00;99.90;;;;;;5094297;28;20447;-75
2022/10/17 12:54:46;;;;;;;9.47;5.97;;;21.80;1.00;;;;;;5095159;28;20428;-76
2022/10/17 12:57:33;;;;;;;5.17;4.43;;;21.80;1.00;;;;;;5095245;28;20817;-75
2022/10/17 13:00:04;;;;;;;5.30;4.80;;;21.80;1.00;;;;;;5095299;28;20459;-76
2022/10/17 13:02:31;;;;;;;5.77;5.00;;;21.80;1.00;;;;;;5095060;28;20424;-76